Time;durP1;ratioP1;P1;durP2;ratioP2;P2;SDS_P1;SDS_P2;PMS_P1;PMS_P2;Temp;Humidity;BMP_temperature;BMP_pressure;BME280_temperature;BME280_humidity;BME280_pressure;Samples;Min_cycle;Max_cycle;Signal;HPM_P1;HPM_P2
2022/07/02 00:01:00;;;;;;;50.20;8.00;;;14.10;42.80;;;;;;5065117;28;20464;-70
2022/07/02 00:03:32;;;;;;;73.57;8.47;;;14.10;43.00;;;;;;5070032;28;20488;-69
2022/07/02 00:06:01;;;;;;;56.03;7.30;;;14.00;43.40;;;;;;5062476;28;20562;-70
2022/07/02 00:08:28;;;;;;;40.67;7.23;;;14.00;43.70;;;;;;5049932;28;20458;-69
2022/07/02 00:10:57;;;;;;;31.47;7.70;;;14.00;43.80;;;;;;5047267;28;20697;-69
2022/07/02 00:13:25;;;;;;;35.40;7.03;;;14.00;44.00;;;;;;5049053;28;20755;-70
2022/07/02 00:15:52;;;;;;;32.70;7.73;;;14.00;43.80;;;;;;5047624;28;20454;-70
2022/07/02 00:18:20;;;;;;;36.13;6.63;;;14.00;44.00;;;;;;5048336;28;20461;-70
2022/07/02 00:20:49;;;;;;;31.83;6.57;;;14.00;44.10;;;;;;5049164;28;20454;-69
2022/07/02 00:23:16;;;;;;;31.20;6.10;;;14.00;44.00;;;;;;5048741;28;21078;-70
2022/07/02 00:25:44;;;;;;;33.43;6.17;;;14.10;44.10;;;;;;5048209;28;20489;-70
2022/07/02 00:28:15;;;;;;;32.70;5.87;;;14.00;44.20;;;;;;5046983;28;20481;-70
2022/07/02 00:30:44;;;;;;;36.10;5.57;;;14.00;44.20;;;;;;5047889;28;21002;-70
2022/07/02 00:33:13;;;;;;;36.17;5.87;;;14.00;44.10;;;;;;5048962;28;20845;-69
2022/07/02 00:35:41;;;;;;;46.87;5.60;;;14.00;44.10;;;;;;5048207;28;20967;-70
2022/07/02 00:39:01;;;;;;;33.90;4.90;;;14.00;44.20;;;;;;5046988;28;20461;-70
2022/07/02 00:41:31;;;;;;;37.53;5.27;;;14.00;44.50;;;;;;5047486;28;20470;-69
2022/07/02 00:43:58;;;;;;;32.03;5.87;;;13.90;44.30;;;;;;5047180;28;21009;-70
2022/07/02 00:46:26;;;;;;;39.90;5.70;;;13.90;44.40;;;;;;5048519;28;20615;-69
2022/07/02 00:48:54;;;;;;;34.33;5.13;;;13.90;44.60;;;;;;5045561;28;20458;-69
2022/07/02 00:51:21;;;;;;;40.63;5.83;;;13.90;44.70;;;;;;5048351;28;20482;-69
2022/07/02 00:53:48;;;;;;;40.93;7.10;;;13.90;44.50;;;;;;5048091;28;20478;-70
2022/07/02 00:56:15;;;;;;;44.83;7.17;;;13.90;44.70;;;;;;5048250;28;20465;-70
2022/07/02 00:58:43;;;;;;;43.63;7.90;;;13.90;44.50;;;;;;5046548;28;20554;-69
2022/07/02 01:01:10;;;;;;;49.23;8.10;;;13.90;44.60;;;;;;5047559;28;20466;-69
2022/07/02 01:03:38;;;;;;;60.40;9.40;;;13.90;44.70;;;;;;5047726;28;20477;-70
2022/07/02 01:06:05;;;;;;;42.60;6.87;;;13.90;44.90;;;;;;5047726;28;20464;-70
2022/07/02 01:11:19;;;;;;;38.57;6.20;;;13.90;44.90;;;;;;5034348;28;20489;-70
2022/07/02 01:13:48;;;;;;;31.57;6.80;;;13.90;44.70;;;;;;5048065;28;20485;-70
2022/07/02 01:16:15;;;;;;;34.07;7.40;;;13.90;44.90;;;;;;5047040;28;20469;-70
2022/07/02 01:18:41;;;;;;;46.53;8.73;;;13.90;44.90;;;;;;5047690;28;20462;-70
2022/07/02 01:21:08;;;;;;;66.53;8.23;;;14.00;44.80;;;;;;5045743;28;21119;-70
2022/07/02 01:23:36;;;;;;;33.93;6.70;;;14.00;44.90;;;;;;5046762;28;20485;-69
2022/07/02 01:26:04;;;;;;;46.17;7.30;;;14.00;45.10;;;;;;5048221;28;20458;-70
2022/07/02 01:28:31;;;;;;;42.20;5.70;;;14.00;44.90;;;;;;5047758;28;20461;-70
2022/07/02 01:30:58;;;;;;;45.33;7.03;;;14.00;44.90;;;;;;5047242;28;20474;-69
2022/07/02 01:33:25;;;;;;;33.03;5.27;;;14.00;45.10;;;;;;5045655;28;21045;-70
2022/07/02 01:35:52;;;;;;;46.30;5.77;;;14.00;44.90;;;;;;5046476;28;20470;-70
2022/07/02 01:38:19;;;;;;;55.33;6.03;;;14.00;45.00;;;;;;5047399;28;20457;-70
2022/07/02 01:40:47;;;;;;;35.40;6.10;;;13.90;44.90;;;;;;5047489;28;20461;-70
2022/07/02 01:43:13;;;;;;;40.40;6.07;;;13.90;44.90;;;;;;5047320;28;20877;-69
2022/07/02 01:45:40;;;;;;;52.30;6.67;;;13.90;44.80;;;;;;5033970;28;20467;-70
2022/07/02 01:48:07;;;;;;;49.07;5.83;;;13.90;44.70;;;;;;5027322;28;20645;-69
2022/07/02 01:50:36;;;;;;;32.73;6.70;;;13.90;44.70;;;;;;5027190;28;20477;-70
2022/07/02 01:53:03;;;;;;;31.90;5.27;;;13.90;44.60;;;;;;5028119;28;20498;-69
2022/07/02 01:55:30;;;;;;;60.40;6.77;;;13.90;44.70;;;;;;5033347;28;20458;-71
2022/07/02 01:57:58;;;;;;;44.37;6.03;;;13.90;44.40;;;;;;5047376;28;20461;-70
2022/07/02 02:00:25;;;;;;;34.63;6.13;;;13.80;44.30;;;;;;5045361;28;20946;-70
2022/07/02 02:02:52;;;;;;;40.83;6.33;;;13.80;44.50;;;;;;5046391;28;21103;-69
2022/07/02 02:05:19;;;;;;;53.17;7.40;;;13.80;44.60;;;;;;5045063;28;20519;-70
2022/07/02 02:07:45;;;;;;;53.50;7.23;;;13.80;44.70;;;;;;5046197;28;20887;-69
2022/07/02 02:10:12;;;;;;;38.93;6.27;;;13.70;44.80;;;;;;5048112;28;20461;-69
2022/07/02 02:12:39;;;;;;;39.67;6.93;;;13.70;45.10;;;;;;5046954;28;20485;-69
2022/07/02 02:15:08;;;;;;;53.50;7.73;;;13.70;45.20;;;;;;5047160;28;20938;-70
2022/07/02 02:17:35;;;;;;;53.50;7.20;;;13.60;45.30;;;;;;5031074;28;20816;-70
2022/07/02 02:20:02;;;;;;;51.17;7.23;;;13.60;45.30;;;;;;5027254;28;20470;-70
2022/07/02 02:22:29;;;;;;;34.57;7.17;;;13.70;45.60;;;;;;5026779;28;20455;-69
2022/07/02 02:24:56;;;;;;;45.97;6.87;;;13.70;45.60;;;;;;5027295;28;20455;-69
2022/07/02 02:27:23;;;;;;;47.13;7.60;;;13.70;45.50;;;;;;5036252;28;20535;-70
2022/07/02 02:29:50;;;;;;;45.00;6.50;;;13.70;45.30;;;;;;5045407;28;20536;-70
2022/07/02 02:32:19;;;;;;;35.63;6.37;;;13.70;45.20;;;;;;5046436;28;20478;-69
2022/07/02 02:34:46;;;;;;;31.47;6.30;;;13.70;45.00;;;;;;5046982;28;20527;-68
2022/07/02 02:37:13;;;;;;;33.93;7.00;;;13.70;44.90;;;;;;5047249;28;20458;-68
2022/07/02 02:39:41;;;;;;;38.73;7.70;;;13.70;44.80;;;;;;5045257;28;20454;-69
2022/07/02 02:42:08;;;;;;;33.50;6.83;;;13.70;44.70;;;;;;5046353;28;20576;-68
2022/07/02 02:44:35;;;;;;;42.13;6.53;;;13.70;44.50;;;;;;5046694;28;20478;-68
2022/07/02 02:47:02;;;;;;;35.40;7.00;;;13.70;44.40;;;;;;5045944;28;20457;-68
2022/07/02 02:49:30;;;;;;;41.70;7.40;;;13.70;44.40;;;;;;5046232;28;20472;-68
2022/07/02 02:51:57;;;;;;;34.73;6.23;;;13.70;44.20;;;;;;5045168;28;20482;-68
2022/07/02 02:54:24;;;;;;;36.07;6.53;;;13.70;44.40;;;;;;5047066;28;20543;-68
2022/07/02 02:56:51;;;;;;;57.13;7.40;;;13.60;44.10;;;;;;5047295;28;20462;-68
2022/07/02 03:06:03;;;;;;;31.50;5.27;;;13.60;44.90;;;;;;5032585;28;20794;-68
2022/07/02 03:08:30;;;;;;;52.00;6.93;;;13.60;43.90;;;;;;5049058;28;20464;-68
2022/07/02 03:10:57;;;;;;;42.87;7.73;;;13.60;44.00;;;;;;5049342;28;20468;-68
2022/07/02 03:13:24;;;;;;;43.47;6.83;;;13.60;44.10;;;;;;5048296;28;20481;-69
2022/07/02 03:15:50;;;;;;;43.83;6.50;;;13.60;44.30;;;;;;5050898;28;20466;-68
2022/07/02 03:18:17;;;;;;;36.83;7.27;;;13.60;44.20;;;;;;5048077;28;20473;-68
2022/07/02 03:20:44;;;;;;;35.23;7.10;;;13.60;44.00;;;;;;5049357;28;20469;-69
2022/07/02 03:23:12;;;;;;;78.70;8.10;;;13.60;44.10;;;;;;5048715;28;20486;-68
2022/07/02 03:25:39;;;;;;;55.27;7.33;;;13.60;43.90;;;;;;5049264;28;20463;-68
2022/07/02 03:28:06;;;;;;;41.57;6.30;;;13.50;43.70;;;;;;5048532;28;20523;-68
2022/07/02 03:30:33;;;;;;;36.70;6.07;;;13.50;43.60;;;;;;5047195;28;21267;-68
2022/07/02 03:32:59;;;;;;;47.03;6.83;;;13.50;43.70;;;;;;5045428;28;20485;-68
2022/07/02 03:35:26;;;;;;;41.53;6.83;;;13.50;43.60;;;;;;5048277;28;20462;-68
2022/07/02 03:37:53;;;;;;;46.10;6.90;;;13.50;43.80;;;;;;5048586;28;20462;-69
2022/07/02 03:40:21;;;;;;;59.37;7.20;;;13.40;44.10;;;;;;5045227;28;20466;-68
2022/07/02 03:42:48;;;;;;;36.63;6.27;;;13.40;44.20;;;;;;5048245;28;20469;-68
2022/07/02 03:45:15;;;;;;;54.37;7.27;;;13.40;44.40;;;;;;5045699;28;20466;-69
2022/07/02 03:47:41;;;;;;;44.43;7.60;;;13.40;44.60;;;;;;5048361;28;20839;-68
2022/07/02 03:50:09;;;;;;;63.20;8.90;;;13.40;44.80;;;;;;5042723;28;20474;-68
2022/07/02 03:52:37;;;;;;;38.10;7.30;;;13.40;44.90;;;;;;5044999;28;20502;-68
2022/07/02 03:55:04;;;;;;;40.40;7.57;;;13.40;45.00;;;;;;5049968;28;20597;-68
2022/07/02 03:57:33;;;;;;;77.70;8.03;;;13.40;45.30;;;;;;5044041;28;20561;-69
2022/07/02 03:59:59;;;;;;;38.93;7.03;;;13.40;45.40;;;;;;5039694;28;20469;-69
2022/07/02 04:02:26;;;;;;;62.77;8.50;;;13.50;45.60;;;;;;5040882;28;20474;-68
2022/07/02 04:04:53;;;;;;;38.17;8.20;;;13.50;45.60;;;;;;5046428;28;20472;-68
2022/07/02 04:07:20;;;;;;;57.87;8.80;;;13.50;45.60;;;;;;5043693;28;20469;-68
2022/07/02 04:09:46;;;;;;;51.20;7.60;;;13.50;45.70;;;;;;5049346;28;20466;-68
2022/07/02 04:12:13;;;;;;;57.67;7.70;;;13.60;45.50;;;;;;5043170;28;20474;-68
2022/07/02 04:14:41;;;;;;;44.67;6.53;;;13.60;45.40;;;;;;5052741;28;21023;-68
2022/07/02 04:17:08;;;;;;;56.90;7.63;;;13.70;45.50;;;;;;5050361;28;20461;-68
2022/07/02 04:19:35;;;;;;;51.23;8.70;;;13.70;45.30;;;;;;5052763;28;20462;-68
2022/07/02 04:22:02;;;;;;;51.97;7.30;;;13.80;45.10;;;;;;5038946;28;20458;-68
2022/07/02 04:24:29;;;;;;;81.73;7.80;;;13.80;44.90;;;;;;5042989;28;20482;-68
2022/07/02 04:26:56;;;;;;;48.47;7.70;;;13.80;44.80;;;;;;5041978;28;20465;-68
2022/07/02 04:29:22;;;;;;;54.03;9.00;;;13.90;44.90;;;;;;5038531;28;20545;-68
2022/07/02 04:31:51;;;;;;;77.83;8.90;;;13.90;44.90;;;;;;5039766;28;20473;-68
2022/07/02 04:34:17;;;;;;;39.40;6.20;;;14.00;44.80;;;;;;5042717;28;20494;-68
2022/07/02 04:36:44;;;;;;;43.07;6.37;;;14.00;44.60;;;;;;5044420;28;20467;-68
2022/07/02 04:39:11;;;;;;;68.07;7.80;;;14.10;44.50;;;;;;5042915;28;20464;-68
2022/07/02 04:41:38;;;;;;;39.90;5.80;;;14.10;44.30;;;;;;5035722;28;20476;-68
2022/07/02 04:44:05;;;;;;;68.43;8.20;;;14.10;44.20;;;;;;5040779;28;20497;-68
2022/07/02 04:46:31;;;;;;;35.03;5.90;;;14.20;44.20;;;;;;5040285;28;20464;-68
2022/07/02 04:49:00;;;;;;;32.33;5.57;;;14.30;44.20;;;;;;5045612;28;20961;-68
2022/07/02 04:51:27;;;;;;;45.07;6.43;;;14.30;44.00;;;;;;5041924;28;20910;-68
2022/07/02 04:53:54;;;;;;;43.20;6.07;;;14.30;44.00;;;;;;5041147;28;20490;-68
2022/07/02 04:56:20;;;;;;;40.50;6.00;;;14.40;43.80;;;;;;5043365;28;20461;-68
2022/07/02 04:58:47;;;;;;;46.37;6.00;;;14.40;43.60;;;;;;5043971;28;20863;-68
2022/07/02 05:01:14;;;;;;;47.60;6.73;;;14.50;43.50;;;;;;5040883;28;20473;-69
2022/07/02 05:03:41;;;;;;;47.07;6.67;;;14.50;43.60;;;;;;5039210;28;20474;-68
2022/07/02 05:06:09;;;;;;;44.43;5.63;;;14.60;43.40;;;;;;5043583;28;20461;-68
2022/07/02 05:08:35;;;;;;;35.67;5.40;;;14.60;43.40;;;;;;5041030;28;20465;-68
2022/07/02 05:11:02;;;;;;;45.83;6.23;;;14.60;43.30;;;;;;5041512;28;20463;-68
2022/07/02 05:13:29;;;;;;;39.53;5.73;;;14.70;43.30;;;;;;5046023;28;20485;-69
2022/07/02 05:15:56;;;;;;;52.53;6.50;;;14.70;43.30;;;;;;5040794;28;20830;-68
2022/07/02 05:18:24;;;;;;;36.93;5.47;;;14.80;43.00;;;;;;5044854;28;20983;-68
2022/07/02 05:20:51;;;;;;;31.93;5.63;;;14.80;43.10;;;;;;5044067;28;20537;-68
2022/07/02 05:23:19;;;;;;;62.23;7.47;;;14.90;43.00;;;;;;5046373;28;20490;-68
2022/07/02 05:25:46;;;;;;;47.03;7.20;;;15.00;42.80;;;;;;5042753;28;20463;-68
2022/07/02 05:28:13;;;;;;;30.83;5.33;;;15.10;42.90;;;;;;5040706;28;20466;-68
2022/07/02 05:30:39;;;;;;;59.30;6.60;;;15.10;42.60;;;;;;5039655;28;20949;-69
2022/07/02 05:33:06;;;;;;;133.00;11.00;;;15.20;42.60;;;;;;5047900;28;20486;-69
2022/07/02 05:35:33;;;;;;;43.77;5.87;;;15.20;42.00;;;;;;5038618;28;20470;-68
2022/07/02 05:38:00;;;;;;;39.33;4.97;;;15.20;41.40;;;;;;5045152;28;20997;-69
2022/07/02 05:40:28;;;;;;;32.93;5.50;;;15.20;41.20;;;;;;5038387;28;20462;-68
2022/07/02 05:42:55;;;;;;;29.70;5.33;;;15.20;41.50;;;;;;5036979;28;20486;-69
2022/07/02 05:45:22;;;;;;;33.20;6.10;;;15.30;41.70;;;;;;5042864;28;20470;-69
2022/07/02 05:47:49;;;;;;;30.10;5.40;;;15.40;41.80;;;;;;5045046;28;20851;-68
2022/07/02 05:50:15;;;;;;;30.87;5.33;;;15.50;41.60;;;;;;5036990;28;20831;-68
2022/07/02 05:52:42;;;;;;;35.13;5.20;;;15.60;41.90;;;;;;5045273;28;20484;-68
2022/07/02 05:55:10;;;;;;;31.30;5.00;;;15.70;41.00;;;;;;5040073;28;20458;-69
2022/07/02 05:57:38;;;;;;;30.03;4.70;;;15.80;40.30;;;;;;5043093;28;20493;-68
2022/07/02 06:00:06;;;;;;;39.43;5.60;;;15.80;40.20;;;;;;5046031;28;20469;-64
2022/07/02 06:02:33;;;;;;;29.37;4.47;;;15.90;40.20;;;;;;5042516;28;20565;-63
2022/07/02 06:07:38;;;;;;;31.23;5.13;;;15.90;40.00;;;;;;5037134;28;21062;-63
2022/07/02 06:07:47;;;;;;;29.20;4.90;;;16.10;40.20;;;;;;5041738;28;20482;-63
2022/07/02 06:10:18;;;;;;;29.40;4.80;;;16.30;40.20;;;;;;5043058;28;20523;-62
2022/07/02 06:12:46;;;;;;;30.40;5.27;;;17.10;40.30;;;;;;5039482;28;20480;-63
2022/07/02 06:15:13;;;;;;;30.37;4.40;;;17.70;36.80;;;;;;5043221;28;20466;-62
2022/07/02 06:17:40;;;;;;;32.10;4.50;;;18.00;35.00;;;;;;5036004;28;20466;-63
2022/07/02 06:20:08;;;;;;;28.80;4.60;;;18.00;33.70;;;;;;5035492;28;20470;-63
2022/07/02 06:22:35;;;;;;;28.57;4.03;;;18.00;33.80;;;;;;5045645;28;20541;-63
2022/07/02 06:25:01;;;;;;;29.80;4.17;;;18.30;34.30;;;;;;5043789;28;20469;-64
2022/07/02 06:27:30;;;;;;;28.97;4.30;;;19.10;33.10;;;;;;5045625;28;20458;-64
2022/07/02 06:29:58;;;;;;;28.60;3.67;;;20.20;32.10;;;;;;5043426;28;20466;-66
2022/07/02 06:32:25;;;;;;;28.40;3.27;;;23.50;24.60;;;;;;5042043;28;20482;-63
2022/07/02 06:34:52;;;;;;;28.70;4.30;;;26.10;17.10;;;;;;5042264;28;20489;-69
2022/07/02 06:37:19;;;;;;;27.60;3.40;;;27.10;14.70;;;;;;5043892;28;20465;-69
2022/07/02 06:39:46;;;;;;;27.63;2.90;;;27.60;13.40;;;;;;5044098;28;20472;-68
2022/07/02 06:42:22;;;;;;;26.97;2.60;;;28.80;9.90;;;;;;5044664;28;20469;-69
2022/07/02 06:44:50;;;;;;;26.73;3.50;;;30.40;9.30;;;;;;5048341;28;20505;-69
2022/07/02 06:47:19;;;;;;;25.87;2.27;;;32.50;6.70;;;;;;5049495;28;20465;-69
2022/07/02 06:49:46;;;;;;;25.40;2.00;;;34.60;2.40;;;;;;5043547;28;20628;-69
2022/07/02 06:52:13;;;;;;;25.83;2.30;;;36.00;1.00;;;;;;5042733;28;20541;-69
2022/07/02 06:54:40;;;;;;;24.57;2.30;;;37.50;1.00;;;;;;5045433;28;20485;-69
2022/07/02 06:57:08;;;;;;;24.50;2.60;;;38.90;1.00;;;;;;5051145;28;21154;-69
2022/07/02 06:59:35;;;;;;;24.40;2.57;;;40.10;1.00;;;;;;5047603;28;20473;-69
2022/07/02 07:02:02;;;;;;;23.67;2.50;;;39.50;1.00;;;;;;5041354;28;20471;-69
2022/07/02 07:04:31;;;;;;;24.00;2.40;;;38.00;1.00;;;;;;5037440;28;20830;-69
2022/07/02 07:07:00;;;;;;;25.03;2.60;;;36.40;1.00;;;;;;5040950;28;20505;-70
2022/07/02 07:09:28;;;;;;;24.60;2.40;;;35.50;1.00;;;;;;5044933;28;21276;-67
2022/07/02 07:11:55;;;;;;;24.10;2.37;;;35.70;1.00;;;;;;5047757;28;20453;-68
2022/07/02 07:14:23;;;;;;;23.73;2.20;;;37.90;1.00;;;;;;5045404;28;20489;-68
2022/07/02 07:16:50;;;;;;;24.00;2.37;;;39.60;1.00;;;;;;5046882;28;20476;-70
2022/07/02 07:19:17;;;;;;;23.30;2.30;;;40.40;1.00;;;;;;5045140;28;20462;-67
2022/07/02 07:21:45;;;;;;;23.20;2.17;;;41.70;1.00;;;;;;5043542;28;20470;-68
2022/07/02 07:24:12;;;;;;;22.63;1.80;;;42.60;1.00;;;;;;5048131;28;20528;-68
2022/07/02 07:26:39;;;;;;;23.07;2.10;;;43.60;1.00;;;;;;5047024;28;20461;-68
2022/07/02 07:32:28;;;;;;;21.67;1.50;;;45.60;1.00;;;;;;5046143;28;20545;-68
2022/07/02 07:34:55;;;;;;;21.60;1.80;;;46.50;1.00;;;;;;5049185;28;20493;-68
2022/07/02 07:37:23;;;;;;;21.60;1.90;;;46.80;1.00;;;;;;5044693;28;20458;-68
2022/07/02 07:39:49;;;;;;;22.40;2.03;;;47.00;1.00;;;;;;5053985;28;20456;-68
2022/07/02 07:42:16;;;;;;;21.70;1.80;;;45.70;1.00;;;;;;5049261;28;20469;-71
2022/07/02 07:44:43;;;;;;;21.90;1.83;;;44.00;1.00;;;;;;5048405;28;20476;-68
2022/07/02 07:47:10;;;;;;;23.00;2.17;;;44.50;1.00;;;;;;5040144;28;20469;-68
2022/07/02 07:49:37;;;;;;;21.47;1.70;;;45.40;1.00;;;;;;5047255;28;20466;-68
2022/07/02 07:52:04;;;;;;;21.57;2.03;;;45.90;1.00;;;;;;5045479;28;20505;-68
2022/07/02 07:54:32;;;;;;;21.60;1.90;;;44.80;1.00;;;;;;5039897;28;20489;-68
2022/07/02 07:56:59;;;;;;;22.30;1.70;;;44.40;1.00;;;;;;5041090;28;20466;-68
2022/07/02 07:59:25;;;;;;;21.20;1.80;;;45.40;1.00;;;;;;5040505;28;20985;-68
2022/07/02 08:01:52;;;;;;;21.77;1.50;;;45.50;1.00;;;;;;5044800;28;20474;-68
2022/07/02 08:04:19;;;;;;;21.90;2.10;;;44.10;1.00;;;;;;5045547;28;20478;-68
2022/07/02 08:06:46;;;;;;;21.80;1.70;;;44.80;1.00;;;;;;5037720;28;20965;-70
2022/07/02 08:09:13;;;;;;;21.33;1.40;;;45.50;1.00;;;;;;5048708;28;20458;-69
2022/07/02 08:11:41;;;;;;;20.97;1.50;;;46.00;1.00;;;;;;5048302;28;20463;-68
2022/07/02 08:14:08;;;;;;;21.97;1.90;;;46.20;1.00;;;;;;5043024;28;20484;-69
2022/07/02 08:16:35;;;;;;;21.87;1.60;;;46.50;1.00;;;;;;5036782;28;20463;-68
2022/07/02 08:19:02;;;;;;;20.97;1.40;;;46.80;1.00;;;;;;5045058;28;20458;-69
2022/07/02 08:21:29;;;;;;;22.97;1.70;;;46.40;1.00;;;;;;5043623;28;20462;-69
2022/07/02 08:26:53;;;;;;;20.83;1.77;;;46.30;1.00;;;;;;4992748;28;20629;-69
2022/07/02 08:29:20;;;;;;;21.17;1.80;;;46.10;1.00;;;;;;4997934;28;20459;-70
2022/07/02 08:31:46;;;;;;;22.00;1.87;;;46.10;1.00;;;;;;5035713;28;20466;-70
2022/07/02 08:34:13;;;;;;;21.03;1.63;;;45.80;1.00;;;;;;5041642;28;20492;-73
2022/07/02 08:36:40;;;;;;;22.00;1.90;;;45.30;1.00;;;;;;5036401;28;20484;-69
2022/07/02 08:39:07;;;;;;;22.40;1.57;;;45.60;1.00;;;;;;5039860;28;20551;-69
2022/07/02 08:41:34;;;;;;;21.60;1.53;;;46.30;1.00;;;;;;5038448;28;20471;-70
2022/07/02 08:44:06;;;;;;;21.50;1.50;;;46.90;1.00;;;;;;5047107;28;20471;-72
2022/07/02 08:46:33;;;;;;;20.90;1.53;;;46.80;1.00;;;;;;5030754;28;21119;-69
2022/07/02 08:49:01;;;;;;;21.07;1.40;;;46.70;1.00;;;;;;5043313;28;20469;-73
2022/07/02 08:54:51;;;;;;;20.77;1.50;;;47.10;1.00;;;;;;5041203;28;20549;-74
2022/07/02 08:57:40;;;;;;;20.53;1.27;;;47.60;1.00;;;;;;5038439;28;20462;-70
2022/07/02 09:00:09;;;;;;;20.57;1.50;;;48.10;1.00;;;;;;5041947;28;20962;-69
2022/07/02 09:02:38;;;;;;;20.47;1.30;;;48.50;1.00;;;;;;5041084;28;20470;-68
2022/07/02 09:05:05;;;;;;;20.40;1.30;;;48.40;1.00;;;;;;5038468;28;20465;-70
2022/07/02 09:07:35;;;;;;;21.17;1.80;;;48.90;1.00;;;;;;5044794;28;20473;-72
2022/07/02 09:10:02;;;;;;;20.80;1.80;;;48.30;1.00;;;;;;5040099;28;20525;-70
2022/07/02 09:12:30;;;;;;;20.87;1.27;;;47.30;1.00;;;;;;5043954;28;20472;-69
2022/07/02 09:14:58;;;;;;;21.30;1.60;;;47.00;1.00;;;;;;5037553;28;20485;-70
2022/07/02 09:17:26;;;;;;;21.97;2.27;;;46.70;1.00;;;;;;5043920;28;20473;-70
2022/07/02 09:19:53;;;;;;;21.83;1.83;;;45.80;1.00;;;;;;5042655;28;20458;-70
2022/07/02 09:22:30;;;;;;;22.77;1.57;;;44.70;1.00;;;;;;5043164;28;20462;-70
2022/07/02 09:25:06;;;;;;;22.30;2.10;;;44.00;1.00;;;;;;5043771;28;20457;-69
2022/07/02 09:27:33;;;;;;;24.13;2.90;;;42.10;1.00;;;;;;5042549;28;20461;-73
2022/07/02 09:29:59;;;;;;;23.17;2.17;;;40.10;1.00;;;;;;5044901;28;20568;-73
2022/07/02 09:32:28;;;;;;;23.10;2.03;;;38.80;1.00;;;;;;5042558;28;20474;-73
2022/07/02 09:34:55;;;;;;;23.30;1.97;;;37.30;1.00;;;;;;5042750;28;20493;-73
2022/07/02 09:37:23;;;;;;;24.17;2.20;;;35.20;1.00;;;;;;5042816;28;20732;-72
2022/07/02 09:39:52;;;;;;;24.30;2.83;;;33.30;1.00;;;;;;5038556;28;20470;-71
2022/07/02 09:42:26;;;;;;;24.70;2.90;;;31.50;1.00;;;;;;5035749;28;20472;-70
2022/07/02 09:44:53;;;;;;;24.67;2.23;;;30.10;1.00;;;;;;5038731;28;20481;-71
2022/07/02 09:47:32;;;;;;;25.77;2.80;;;29.00;1.70;;;;;;5037676;28;20551;-71
2022/07/02 09:50:03;;;;;;;25.17;3.10;;;28.00;3.50;;;;;;5040915;28;20461;-71
2022/07/02 09:52:30;;;;;;;25.20;3.20;;;27.30;5.60;;;;;;5038386;28;20463;-71
2022/07/02 09:54:57;;;;;;;26.03;2.30;;;26.60;4.80;;;;;;5041769;28;20493;-72
2022/07/02 09:57:26;;;;;;;25.00;3.00;;;26.10;4.30;;;;;;5039963;28;20450;-70
2022/07/02 09:59:53;;;;;;;25.20;2.70;;;25.70;6.60;;;;;;5040590;28;20474;-71
2022/07/02 10:02:23;;;;;;;25.90;2.70;;;25.40;7.40;;;;;;5040555;28;20481;-72
2022/07/02 10:04:53;;;;;;;26.00;3.30;;;25.10;8.20;;;;;;5036198;28;20551;-72
2022/07/02 10:07:23;;;;;;;24.57;3.30;;;24.70;6.70;;;;;;5042379;28;20568;-71
2022/07/02 10:09:50;;;;;;;25.67;2.80;;;24.60;9.40;;;;;;5039180;28;20468;-71
2022/07/02 10:12:18;;;;;;;26.30;3.40;;;24.50;9.60;;;;;;5036376;28;20959;-71
2022/07/02 10:14:46;;;;;;;24.40;3.13;;;24.30;9.40;;;;;;5041499;28;20490;-71
2022/07/02 10:17:14;;;;;;;26.80;3.57;;;24.20;10.10;;;;;;5041133;28;20463;-71
2022/07/02 10:19:41;;;;;;;26.60;3.03;;;24.10;9.50;;;;;;5043264;28;20551;-71
2022/07/02 10:22:10;;;;;;;27.63;3.60;;;24.00;9.50;;;;;;5043444;28;20462;-71
2022/07/02 10:24:37;;;;;;;24.70;2.80;;;23.90;10.80;;;;;;5042701;28;20851;-71
2022/07/02 10:27:05;;;;;;;25.17;2.67;;;23.90;10.90;;;;;;5044310;28;20461;-71
2022/07/02 10:29:33;;;;;;;28.97;3.03;;;23.80;10.70;;;;;;5050321;28;20520;-71
2022/07/02 10:32:13;;;;;;;26.37;2.93;;;23.80;9.20;;;;;;5047362;28;20477;-71
2022/07/02 10:34:52;;;;;;;26.60;3.57;;;23.70;10.30;;;;;;5047303;28;21147;-71
2022/07/02 10:37:21;;;;;;;26.67;2.80;;;23.70;9.90;;;;;;5047621;28;20980;-71
2022/07/02 10:39:48;;;;;;;27.60;2.53;;;23.60;8.60;;;;;;5046822;28;20469;-70
2022/07/02 10:42:14;;;;;;;26.20;3.60;;;23.50;9.10;;;;;;5046149;28;21031;-73
2022/07/02 10:44:42;;;;;;;25.97;2.57;;;23.40;9.80;;;;;;5049226;28;20469;-70
2022/07/02 10:47:18;;;;;;;26.17;2.70;;;23.40;9.40;;;;;;5048478;28;20454;-73
2022/07/02 10:49:45;;;;;;;27.33;2.83;;;23.40;9.60;;;;;;5047260;28;20460;-71
2022/07/02 10:52:12;;;;;;;26.10;3.10;;;23.40;8.80;;;;;;5045460;28;21261;-71
2022/07/02 10:54:45;;;;;;;26.83;2.70;;;23.30;9.50;;;;;;5041745;28;20478;-71
2022/07/02 10:57:16;;;;;;;26.57;3.60;;;23.40;8.60;;;;;;5039557;28;21032;-71
2022/07/02 10:59:44;;;;;;;26.10;2.50;;;23.30;9.50;;;;;;5040842;28;20468;-71
2022/07/02 11:02:15;;;;;;;26.30;2.50;;;23.30;9.40;;;;;;5045391;28;20535;-73
2022/07/02 11:04:42;;;;;;;26.27;2.40;;;23.30;8.10;;;;;;5043617;28;20477;-71
2022/07/02 11:07:11;;;;;;;27.10;2.40;;;23.30;9.60;;;;;;5042795;28;21015;-71
2022/07/02 11:09:50;;;;;;;26.40;2.40;;;23.30;9.40;;;;;;5043185;28;20496;-71
2022/07/02 11:12:22;;;;;;;28.20;3.93;;;23.30;9.60;;;;;;5047584;28;20465;-71
2022/07/02 11:14:57;;;;;;;26.07;2.80;;;23.30;9.10;;;;;;5047880;28;20486;-72
2022/07/02 11:17:25;;;;;;;27.30;2.70;;;23.30;8.90;;;;;;5048604;28;20456;-72
2022/07/02 11:19:54;;;;;;;26.40;3.03;;;23.30;9.00;;;;;;5048608;28;20458;-71
2022/07/02 11:22:21;;;;;;;26.40;2.60;;;23.30;7.40;;;;;;5046263;28;20466;-71
2022/07/02 11:24:54;;;;;;;27.07;2.80;;;23.30;7.70;;;;;;5041423;28;20485;-71
2022/07/02 11:27:21;;;;;;;26.77;2.93;;;23.20;7.30;;;;;;5037630;28;20461;-71
2022/07/02 11:29:54;;;;;;;28.50;2.67;;;23.10;8.20;;;;;;5043513;28;20561;-71
2022/07/02 11:32:21;;;;;;;26.60;2.37;;;23.10;8.40;;;;;;5041404;28;20478;-71
2022/07/02 11:34:57;;;;;;;27.07;2.90;;;23.10;8.40;;;;;;5036763;28;20523;-73
2022/07/02 11:37:24;;;;;;;26.30;3.00;;;23.20;8.70;;;;;;5042036;28;20463;-71
2022/07/02 11:39:52;;;;;;;26.43;2.80;;;23.20;10.40;;;;;;5041144;28;20458;-71
2022/07/02 11:42:20;;;;;;;27.53;2.80;;;23.20;10.00;;;;;;5042494;28;20466;-73
2022/07/02 11:44:47;;;;;;;26.27;2.43;;;23.30;8.20;;;;;;5038573;28;20479;-73
2022/07/02 11:47:14;;;;;;;26.23;2.67;;;23.20;8.40;;;;;;5036315;28;20479;-71
2022/07/02 11:49:41;;;;;;;26.60;2.70;;;23.20;8.20;;;;;;5039807;28;20465;-71
2022/07/02 11:52:08;;;;;;;26.77;3.07;;;23.20;8.40;;;;;;5041703;28;20959;-72
2022/07/02 11:54:41;;;;;;;26.80;3.30;;;23.20;8.00;;;;;;5035247;28;21023;-72
2022/07/02 11:57:11;;;;;;;26.40;3.03;;;23.30;8.60;;;;;;5042820;28;20458;-72
2022/07/02 11:59:37;;;;;;;27.10;2.50;;;23.30;8.10;;;;;;5047431;28;20567;-72
2022/07/02 12:02:04;;;;;;;27.27;2.53;;;23.30;6.00;;;;;;5048817;28;20474;-71
2022/07/02 12:04:31;;;;;;;27.63;2.53;;;23.30;5.90;;;;;;5053276;28;20477;-72
2022/07/02 12:06:58;;;;;;;26.13;2.50;;;23.30;7.00;;;;;;5046760;28;20462;-72
2022/07/02 12:09:26;;;;;;;26.70;2.53;;;23.30;7.30;;;;;;5049076;28;20461;-71
2022/07/02 12:11:56;;;;;;;27.27;2.60;;;23.30;8.80;;;;;;5049454;28;20466;-71
2022/07/02 12:14:27;;;;;;;26.50;2.70;;;23.20;6.90;;;;;;5040265;28;20565;-71
2022/07/02 12:16:54;;;;;;;29.00;2.73;;;23.20;7.30;;;;;;5041088;28;20952;-71
2022/07/02 12:19:28;;;;;;;27.00;2.60;;;23.20;8.50;;;;;;5039170;28;20466;-74
2022/07/02 12:21:55;;;;;;;26.70;2.63;;;23.20;6.00;;;;;;5042287;28;21036;-71
2022/07/02 12:24:24;;;;;;;27.07;3.13;;;23.20;6.90;;;;;;5039479;28;20546;-71
2022/07/02 12:26:52;;;;;;;26.90;2.93;;;23.20;8.80;;;;;;5039729;28;20462;-72
2022/07/02 12:32:10;;;;;;;27.43;3.23;;;23.30;8.70;;;;;;5039933;28;21024;-72
2022/07/02 12:34:39;;;;;;;26.90;2.37;;;23.40;7.80;;;;;;5042062;28;20490;-72
2022/07/02 12:37:07;;;;;;;27.50;3.03;;;23.40;6.80;;;;;;5046077;28;20466;-72
2022/07/02 12:46:20;;;;;;;26.80;3.07;;;23.40;8.30;;;;;;5044083;28;20445;-72
2022/07/02 12:48:48;;;;;;;26.57;3.10;;;23.40;8.00;;;;;;5045304;28;20462;-72
2022/07/02 12:51:15;;;;;;;26.30;2.80;;;23.40;8.80;;;;;;5045775;28;20485;-72
2022/07/02 12:53:42;;;;;;;26.57;2.80;;;23.50;8.20;;;;;;5043459;28;20578;-71
2022/07/02 12:56:10;;;;;;;26.23;2.60;;;23.50;8.50;;;;;;5046213;28;20474;-71
2022/07/02 12:58:38;;;;;;;26.50;3.10;;;23.50;8.90;;;;;;5037840;28;20472;-72
2022/07/02 13:01:05;;;;;;;26.37;3.10;;;23.60;9.10;;;;;;5038458;28;20470;-72
2022/07/02 13:03:32;;;;;;;27.00;2.57;;;23.60;8.70;;;;;;5037669;28;20481;-71
2022/07/02 13:06:02;;;;;;;27.10;3.07;;;23.70;7.60;;;;;;5037124;28;20463;-71
2022/07/02 13:08:28;;;;;;;27.40;3.17;;;23.70;8.20;;;;;;5035875;28;21136;-71
2022/07/02 13:10:57;;;;;;;26.73;3.10;;;23.70;8.40;;;;;;5043979;28;20469;-71
2022/07/02 13:13:25;;;;;;;27.03;3.30;;;23.70;7.50;;;;;;5038572;28;20514;-72